Time;durP1;ratioP1;P1;durP2;ratioP2;P2;SDS_P1;SDS_P2;PMS_P1;PMS_P2;Temp;Humidity;BMP_temperature;BMP_pressure;BME280_temperature;BME280_humidity;BME280_pressure;Samples;Min_cycle;Max_cycle;Signal;HPM_P1;HPM_P2
2023/07/05 00:00:46;;;;;;;;;;;;;;;;;;5029899;28;19925;-65
2023/07/05 00:03:13;;;;;;;;;;;;;;;;;;5029549;28;19933;-65
2023/07/05 00:05:39;;;;;;;;;;;;;;;;;;5030035;28;20021;-65
2023/07/05 00:08:06;;;;;;;;;;;;;;;;;;5029374;28;19925;-65
2023/07/05 00:10:34;;;;;;;;;;;;;;;;;;5029448;28;19935;-65
2023/07/05 00:13:00;;;;;;;;;;;;;;;;;;5029747;28;19932;-65
2023/07/05 00:15:27;;;;;;;;;;;;;;;;;;5033524;28;20108;-65
2023/07/05 00:17:53;;;;;;;;;;;;;;;;;;5032958;28;19931;-65
2023/07/05 00:20:20;;;;;;;;;;;;;;;;;;5033055;28;19991;-66
2023/07/05 00:22:46;;;;;;;;;;;;;;;;;;5033725;28;19925;-65
2023/07/05 00:25:13;;;;;;;;;;;;;;;;;;5032994;28;20219;-65
2023/07/05 00:27:40;;;;;;;;;;;;;;;;;;5033057;28;20008;-65
2023/07/05 00:30:07;;;;;;;;;;;;;;;;;;5032298;28;19925;-65
2023/07/05 00:32:34;;;;;;;;;;;;;;;;;;5033567;28;19925;-65
2023/07/05 00:35:00;;;;;;;;;;;;;;;;;;5032729;28;19925;-65
2023/07/05 00:37:26;;;;;;;;;;;;;;;;;;5032921;28;19925;-65
2023/07/05 00:39:53;;;;;;;;;;;;;;;;;;5032414;28;20016;-65
2023/07/05 00:42:19;;;;;;;;;;;;;;;;;;5033128;28;19925;-65
2023/07/05 00:45:03;;;;;;;;;;;;;;;;;;5032269;28;19925;-65
2023/07/05 00:47:33;;;;;;;;;;;;;;;;;;5031808;28;19931;-65
2023/07/05 00:50:01;;;;;;;;;;;;;;;;;;5032223;28;19925;-65
2023/07/05 00:52:28;;;;;;;;;;;;;;;;;;5032901;28;20013;-66
2023/07/05 00:54:56;;;;;;;;;;;;;;;;;;5032361;28;19931;-65
2023/07/05 00:57:25;;;;;;;;;;;;;;;;;;5032303;28;19935;-65
2023/07/05 00:59:53;;;;;;;;;;;;;;;;;;5032270;28;20409;-65
2023/07/05 01:02:21;;;;;;;;;;;;;;;;;;5032862;28;19932;-65
2023/07/05 01:04:47;;;;;;;;;;;;;;;;;;5032691;28;19925;-65
2023/07/05 01:07:14;;;;;;;;;;;;;;;;;;5032565;28;19925;-65
2023/07/05 01:09:40;;;;;;;;;;;;;;;;;;5032090;28;19931;-65
2023/07/05 01:12:11;;;;;;;;;;;;;;;;;;5032234;28;19963;-66
2023/07/05 01:14:40;;;;;;;;;;;;;;;;;;5032786;28;19979;-65
2023/07/05 01:17:10;;;;;;;;;;;;;;;;;;5032069;28;20007;-66
2023/07/05 01:19:55;;;;;;;;;;;;;;;;;;5031924;28;20370;-65
2023/07/05 01:22:28;;;;;;;;;;;;;;;;;;5031585;28;20009;-65
2023/07/05 01:25:05;;;;;;;;;;;;;;;;;;5031480;28;20331;-65
2023/07/05 01:27:37;;;;;;;;;;;;;;;;;;5031887;28;19925;-65
2023/07/05 01:30:20;;;;;;;;;;;;;;;;;;5032055;28;19932;-65
2023/07/05 01:32:51;;;;;;;;;;;;;;;;;;5031506;28;20391;-65
2023/07/05 01:35:20;;;;;;;;;;;;;;;;;;5031262;28;19925;-65
2023/07/05 01:37:46;;;;;;;;;;;;;;;;;;5031458;28;20403;-65
2023/07/05 01:40:14;;;;;;;;;;;;;;;;;;5031509;28;20299;-66
2023/07/05 01:42:41;;;;;;;;;;;;;;;;;;5031938;28;20378;-65
2023/07/05 01:45:08;;;;;;;;;;;;;;;;;;5031655;28;19947;-65
2023/07/05 01:47:37;;;;;;;;;;;;;;;;;;5031184;28;19929;-66
2023/07/05 01:50:10;;;;;;;;;;;;;;;;;;5031574;28;19929;-65
2023/07/05 01:52:43;;;;;;;;;;;;;;;;;;5031797;28;19933;-64
2023/07/05 01:55:14;;;;;;;;;;;;;;;;;;5031472;28;19925;-65
2023/07/05 01:57:44;;;;;;;;;;;;;;;;;;5031290;28;19932;-65
2023/07/05 02:00:12;;;;;;;;;;;;;;;;;;5030704;28;19931;-65
2023/07/05 02:02:41;;;;;;;;;;;;;;;;;;5031518;28;19925;-65
2023/07/05 02:05:10;;;;;;;;;;;;;;;;;;5031252;28;20394;-65
2023/07/05 02:07:37;;;;;;;;;;;;;;;;;;5031464;28;19931;-65
2023/07/05 02:10:03;;;;;;;;;;;;;;;;;;5030532;28;19935;-65
2023/07/05 02:12:30;;;;;;;;;;;;;;;;;;5031276;28;19929;-65
2023/07/05 02:14:56;;;;;;;;;;;;;;;;;;5031602;28;20382;-65
2023/07/05 02:17:23;;;;;;;;;;;;;;;;;;5031973;28;19987;-65
2023/07/05 02:19:50;;;;;;;;;;;;;;;;;;5031612;28;19964;-65
2023/07/05 02:22:19;;;;;;;;;;;;;;;;;;5032161;28;19979;-66
2023/07/05 02:24:45;;;;;;;;;;;;;;;;;;5031767;28;19925;-65
2023/07/05 02:27:12;;;;;;;;;;;;;;;;;;5030794;28;20031;-66
2023/07/05 02:29:38;;;;;;;;;;;;;;;;;;5030080;28;20020;-65
2023/07/05 02:32:05;;;;;;;;;;;;;;;;;;5031078;28;20013;-65
2023/07/05 02:34:31;;;;;;;;;;;;;;;;;;5030749;28;19932;-65
2023/07/05 02:36:57;;;;;;;;;;;;;;;;;;5030178;28;20403;-65
2023/07/05 02:39:25;;;;;;;;;;;;;;;;;;5030894;28;19925;-65
2023/07/05 02:41:52;;;;;;;;;;;;;;;;;;5030121;28;19925;-65
2023/07/05 02:44:18;;;;;;;;;;;;;;;;;;5031048;28;19980;-65
2023/07/05 02:46:44;;;;;;;;;;;;;;;;;;5030259;28;19926;-65
2023/07/05 02:49:12;;;;;;;;;;;;;;;;;;5030690;28;20304;-65
2023/07/05 02:51:39;;;;;;;;;;;;;;;;;;5029828;28;19932;-65
2023/07/05 02:54:05;;;;;;;;;;;;;;;;;;5030480;28;19929;-65
2023/07/05 02:56:33;;;;;;;;;;;;;;;;;;5030137;28;19925;-65
2023/07/05 02:58:59;;;;;;;;;;;;;;;;;;5030801;28;20298;-65
2023/07/05 03:01:25;;;;;;;;;;;;;;;;;;5029665;28;19925;-65
2023/07/05 03:03:52;;;;;;;;;;;;;;;;;;5030543;28;19931;-65
2023/07/05 03:06:18;;;;;;;;;;;;;;;;;;5030231;28;19975;-66
2023/07/05 03:08:45;;;;;;;;;;;;;;;;;;5030117;28;19967;-65
2023/07/05 03:11:11;;;;;;;;;;;;;;;;;;5030116;28;20297;-65
2023/07/05 03:13:39;;;;;;;;;;;;;;;;;;5030248;28;19936;-65
2023/07/05 03:16:06;;;;;;;;;;;;;;;;;;5030255;28;19925;-65
2023/07/05 03:18:32;;;;;;;;;;;;;;;;;;5030017;28;19925;-66
2023/07/05 03:20:59;;;;;;;;;;;;;;;;;;5030304;28;19993;-65
2023/07/05 03:23:25;;;;;;;;;;;;;;;;;;5030119;28;20379;-65
2023/07/05 03:25:56;;;;;;;;;;;;;;;;;;5030432;28;19926;-65
2023/07/05 03:28:23;;;;;;;;;;;;;;;;;;5029939;28;19932;-65
2023/07/05 03:30:55;;;;;;;;;;;;;;;;;;5029935;28;20450;-65
2023/07/05 03:33:21;;;;;;;;;;;;;;;;;;5029827;28;20376;-65
2023/07/05 03:35:53;;;;;;;;;;;;;;;;;;5029792;28;19932;-65
2023/07/05 03:38:19;;;;;;;;;;;;;;;;;;5029725;28;20020;-65
2023/07/05 03:40:46;;;;;;;;;;;;;;;;;;5029764;28;19964;-66
2023/07/05 03:43:12;;;;;;;;;;;;;;;;;;5029799;28;19925;-67
2023/07/05 03:45:38;;;;;;;;;;;;;;;;;;5029895;28;19925;-66
2023/07/05 03:48:06;;;;;;;;;;;;;;;;;;5030394;28;20020;-66
2023/07/05 03:50:34;;;;;;;;;;;;;;;;;;5033676;28;19935;-67
2023/07/05 03:53:01;;;;;;;;;;;;;;;;;;5034057;28;19937;-67
2023/07/05 03:55:27;;;;;;;;;;;;;;;;;;5033443;28;20020;-66
2023/07/05 03:57:53;;;;;;;;;;;;;;;;;;5033771;28;19932;-67
2023/07/05 04:00:20;;;;;;;;;;;;;;;;;;5033441;28;20289;-66
2023/07/05 04:02:46;;;;;;;;;;;;;;;;;;5034220;28;20286;-66
2023/07/05 04:05:14;;;;;;;;;;;;;;;;;;5033599;28;19929;-66
2023/07/05 04:07:41;;;;;;;;;;;;;;;;;;5033649;28;19925;-66
2023/07/05 04:10:07;;;;;;;;;;;;;;;;;;5033013;28;20035;-66
2023/07/05 04:12:34;;;;;;;;;;;;;;;;;;5034342;28;19925;-66
2023/07/05 04:15:00;;;;;;;;;;;;;;;;;;5033067;28;20446;-67
2023/07/05 04:17:29;;;;;;;;;;;;;;;;;;5033065;28;20185;-66
2023/07/05 04:19:55;;;;;;;;;;;;;;;;;;5032917;28;20366;-67
2023/07/05 04:22:23;;;;;;;;;;;;;;;;;;5033591;28;19925;-66
2023/07/05 04:24:49;;;;;;;;;;;;;;;;;;5033858;28;20375;-66
2023/07/05 04:27:16;;;;;;;;;;;;;;;;;;5033098;28;19935;-66
2023/07/05 04:29:43;;;;;;;;;;;;;;;;;;5032654;28;19979;-66
2023/07/05 04:32:09;;;;;;;;;;;;;;;;;;5032688;28;19929;-67
2023/07/05 04:34:35;;;;;;;;;;;;;;;;;;5033127;28;19936;-66
2023/07/05 04:37:02;;;;;;;;;;;;;;;;;;5032773;28;19948;-66
2023/07/05 04:39:29;;;;;;;;;;;;;;;;;;5032712;28;20345;-66
2023/07/05 04:41:56;;;;;;;;;;;;;;;;;;5032490;28;19926;-66
2023/07/05 04:44:22;;;;;;;;;;;;;;;;;;5032768;28;19925;-67
2023/07/05 04:46:49;;;;;;;;;;;;;;;;;;5032508;28;20379;-66
2023/07/05 04:49:15;;;;;;;;;;;;;;;;;;5032990;28;19936;-66
2023/07/05 04:51:41;;;;;;;;;;;;;;;;;;5032048;28;19925;-66
2023/07/05 04:54:08;;;;;;;;;;;;;;;;;;5032653;28;20318;-66
2023/07/05 04:56:36;;;;;;;;;;;;;;;;;;5032319;28;20008;-66
2023/07/05 04:59:02;;;;;;;;;;;;;;;;;;5031932;28;19947;-66
2023/07/05 05:01:28;;;;;;;;;;;;;;;;;;5030865;28;19948;-66
2023/07/05 05:03:55;;;;;;;;;;;;;;;;;;5032159;28;20032;-66
2023/07/05 05:06:21;;;;;;;;;;;;;;;;;;5032446;28;19925;-66
2023/07/05 05:08:47;;;;;;;;;;;;;;;;;;5032093;28;20387;-66
2023/07/05 05:11:14;;;;;;;;;;;;;;;;;;5032076;28;19925;-66
2023/07/05 05:13:42;;;;;;;;;;;;;;;;;;5031717;28;19925;-66
2023/07/05 05:16:08;;;;;;;;;;;;;;;;;;5032353;28;19925;-66
2023/07/05 05:18:35;;;;;;;;;;;;;;;;;;5031749;28;19925;-66
2023/07/05 05:21:02;;;;;;;;;;;;;;;;;;5031836;28;19925;-66
2023/07/05 05:23:29;;;;;;;;;;;;;;;;;;5031921;28;19979;-66
2023/07/05 05:25:56;;;;;;;;;;;;;;;;;;5032079;28;19929;-66
2023/07/05 05:28:22;;;;;;;;;;;;;;;;;;5032110;28;19929;-66
2023/07/05 05:30:50;;;;;;;;;;;;;;;;;;5031978;28;19925;-66
2023/07/05 05:33:17;;;;;;;;;;;;;;;;;;5031578;28;19926;-66
2023/07/05 05:35:46;;;;;;;;;;;;;;;;;;5031867;28;19925;-66
2023/07/05 05:38:13;;;;;;;;;;;;;;;;;;5032018;28;19935;-66
2023/07/05 05:40:39;;;;;;;;;;;;;;;;;;5030686;28;20004;-66
2023/07/05 05:43:06;;;;;;;;;;;;;;;;;;5029033;28;19932;-66
2023/07/05 05:45:32;;;;;;;;;;;;;;;;;;5026280;28;19979;-66
2023/07/05 05:48:00;;;;;;;;;;;;;;;;;;5030850;28;19925;-66
2023/07/05 05:50:26;;;;;;;;;;;;;;;;;;5028910;28;20004;-66
2023/07/05 05:52:53;;;;;;;;;;;;;;;;;;5026589;28;19929;-66
2023/07/05 05:55:20;;;;;;;;;;;;;;;;;;5028501;28;19931;-66
2023/07/05 05:57:46;;;;;;;;;;;;;;;;;;5031397;28;20294;-66
2023/07/05 06:00:13;;;;;;;;;;;;;;;;;;5030479;28;20205;-66
2023/07/05 06:02:39;;;;;;;;;;;;;;;;;;5027639;28;20188;-66
2023/07/05 06:05:08;;;;;;;;;;;;;;;;;;5030462;28;20432;-66
2023/07/05 06:07:35;;;;;;;;;;;;;;;;;;5029791;28;19925;-66
2023/07/05 06:10:01;;;;;;;;;;;;;;;;;;5024237;28;19929;-66
2023/07/05 06:12:28;;;;;;;;;;;;;;;;;;5025528;28;19936;-66
2023/07/05 06:14:54;;;;;;;;;;;;;;;;;;5027410;28;20020;-66
2023/07/05 06:17:20;;;;;;;;;;;;;;;;;;5026701;28;19940;-67
2023/07/05 06:19:47;;;;;;;;;;;;;;;;;;5029888;28;19925;-66
2023/07/05 06:22:14;;;;;;;;;;;;;;;;;;5023934;28;20409;-66
2023/07/05 06:24:42;;;;;;;;;;;;;;;;;;5025848;28;19925;-66
2023/07/05 06:27:09;;;;;;;;;;;;;;;;;;5026172;28;19925;-65
2023/07/05 06:29:35;;;;;;;;;;;;;;;;;;5028858;28;19925;-65
2023/07/05 06:32:02;;;;;;;;;;;;;;;;;;5028982;28;19929;-66
2023/07/05 06:34:28;;;;;;;;;;;;;;;;;;5026513;28;19925;-66
2023/07/05 06:36:55;;;;;;;;;;;;;;;;;;5025915;28;19925;-66
2023/07/05 06:39:22;;;;;;;;;;;;;;;;;;5034261;28;20451;-67
2023/07/05 06:41:49;;;;;;;;;;;;;;;;;;5050051;28;20007;-66
2023/07/05 06:44:15;;;;;;;;;;;;;;;;;;5049859;28;19924;-66
2023/07/05 06:46:42;;;;;;;;;;;;;;;;;;5050360;28;20015;-66
2023/07/05 06:49:08;;;;;;;;;;;;;;;;;;5050485;28;20375;-66
2023/07/05 06:51:34;;;;;;;;;;;;;;;;;;5049583;28;19924;-66
2023/07/05 06:54:01;;;;;;;;;;;;;;;;;;5050445;28;20016;-66
2023/07/05 06:56:28;;;;;;;;;;;;;;;;;;5049431;28;19931;-66
2023/07/05 06:58:55;;;;;;;;;;;;;;;;;;5050424;28;19925;-65
2023/07/05 07:01:21;;;;;;;;;;;;;;;;;;5048914;28;20016;-66
2023/07/05 07:03:48;;;;;;;;;;;;;;;;;;5029405;28;20008;-66
2023/07/05 07:06:14;;;;;;;;;;;;;;;;;;5029161;28;20027;-65
2023/07/05 07:08:40;;;;;;;;;;;;;;;;;;5030407;28;20024;-65
2023/07/05 07:11:08;;;;;;;;;;;;;;;;;;5029922;28;20425;-65
2023/07/05 07:13:36;;;;;;;;;;;;;;;;;;5030073;28;20386;-66
2023/07/05 07:16:03;;;;;;;;;;;;;;;;;;5030382;28;19925;-66
2023/07/05 07:18:30;;;;;;;;;;;;;;;;;;5029264;28;19941;-66
2023/07/05 07:20:56;;;;;;;;;;;;;;;;;;5029889;28;19935;-65
2023/07/05 07:23:22;;;;;;;;;;;;;;;;;;5030373;28;19933;-65
2023/07/05 07:25:57;;;;;;;;;;;;;;;;;;5033871;28;19929;-65
2023/07/05 07:28:23;;;;;;;;;;;;;;;;;;5034070;28;20286;-65
2023/07/05 07:30:51;;;;;;;;;;;;;;;;;;5033877;28;19925;-65
2023/07/05 07:33:17;;;;;;;;;;;;;;;;;;5032643;28;20391;-65
2023/07/05 07:35:44;;;;;;;;;;;;;;;;;;5033735;28;20023;-66
2023/07/05 07:38:10;;;;;;;;;;;;;;;;;;5034033;28;20438;-66
2023/07/05 07:40:37;;;;;;;;;;;;;;;;;;5032783;28;19992;-65
2023/07/05 07:43:06;;;;;;;;;;;;;;;;;;5033857;28;20290;-66
2023/07/05 07:45:32;;;;;;;;;;;;;;;;;;5033615;28;20274;-66
2023/07/05 07:48:00;;;;;;;;;;;;;;;;;;5033781;28;20119;-66
2023/07/05 07:50:27;;;;;;;;;;;;;;;;;;5033119;28;19933;-66
2023/07/05 07:52:54;;;;;;;;;;;;;;;;;;5033745;28;19935;-66
2023/07/05 07:55:20;;;;;;;;;;;;;;;;;;5050897;28;19978;-66
2023/07/05 07:57:47;;;;;;;;;;;;;;;;;;5053267;28;20572;-66
2023/07/05 08:00:14;;;;;;;;;;;;;;;;;;5052691;28;19928;-66
2023/07/05 08:02:40;;;;;;;;;;;;;;;;;;5041735;28;19932;-66
2023/07/05 08:05:14;;;;;;;;;;;;;;;;;;5033694;28;20020;-66
2023/07/05 08:07:40;;;;;;;;;;;;;;;;;;5032948;28;19931;-66
2023/07/05 08:10:07;;;;;;;;;;;;;;;;;;5032906;28;20434;-66
2023/07/05 08:12:34;;;;;;;;;;;;;;;;;;5033344;28;20306;-66
2023/07/05 08:15:01;;;;;;;;;;;;;;;;;;5033027;28;19929;-66
2023/07/05 08:17:28;;;;;;;;;;;;;;;;;;5033448;28;20363;-66
2023/07/05 08:19:54;;;;;;;;;;;;;;;;;;5032349;28;20093;-66
2023/07/05 08:22:22;;;;;;;;;;;;;;;;;;5033362;28;19931;-66
2023/07/05 08:24:49;;;;;;;;;;;;;;;;;;5031625;28;19932;-66
2023/07/05 08:27:15;;;;;;;;;;;;;;;;;;5040523;28;19925;-66
2023/07/05 08:29:42;;;;;;;;;;;;;;;;;;5051734;28;20397;-66
2023/07/05 08:32:09;;;;;;;;;;;;;;;;;;5048276;28;20388;-66
2023/07/05 08:34:36;;;;;;;;;;;;;;;;;;5031876;28;19994;-66
2023/07/05 08:37:03;;;;;;;;;;;;;;;;;;5052850;28;19971;-66
2023/07/05 08:39:31;;;;;;;;;;;;;;;;;;5051970;28;19925;-66
2023/07/05 08:42:07;;;;;;;;;;;;;;;;;;5052105;28;19928;-66
2023/07/05 08:44:42;;;;;;;;;;;;;;;;;;5052179;28;19924;-66
2023/07/05 08:47:17;;;;;;;;;;;;;;;;;;5052531;28;20016;-66
2023/07/05 08:49:47;;;;;;;;;;;;;;;;;;5052050;28;19968;-66
2023/07/05 08:52:19;;;;;;;;;;;;;;;;;;5052480;28;19935;-66
2023/07/05 08:54:48;;;;;;;;;;;;;;;;;;5012048;28;19932;-66
2023/07/05 08:57:19;;;;;;;;;;;;;;;;;;5039531;28;20015;-66
2023/07/05 08:59:49;;;;;;;;;;;;;;;;;;5052044;28;20366;-64
2023/07/05 09:02:17;;;;;;;;;;;;;;;;;;5045121;28;20016;-65
2023/07/05 09:04:47;;;;;;;;;;;;;;;;;;5043786;28;19924;-65
2023/07/05 09:07:17;;;;;;;;;;;;;;;;;;5052284;28;20038;-65
2023/07/05 09:09:50;;;;;;;;;;;;;;;;;;5050687;28;20374;-64
2023/07/05 09:12:18;;;;;;;;;;;;;;;;;;5052363;28;20298;-64
2023/07/05 09:14:57;;;;;;;;;;;;;;;;;;5051069;28;20458;-64
2023/07/05 09:17:28;;;;;;;;;;;;;;;;;;5051925;28;20450;-64
2023/07/05 09:20:01;;;;;;;;;;;;;;;;;;5050860;28;20449;-64
2023/07/05 09:22:32;;;;;;;;;;;;;;;;;;5052120;28;19931;-64
2023/07/05 09:25:00;;;;;;;;;;;;;;;;;;5035221;28;20042;-64
2023/07/05 09:27:29;;;;;;;;;;;;;;;;;;5031862;28;19925;-64
2023/07/05 09:29:57;;;;;;;;;;;;;;;;;;5030991;28;20015;-64
2023/07/05 09:32:27;;;;;;;;;;;;;;;;;;5027436;28;21013;-64
2023/07/05 09:34:56;;;;;;;;;;;;;;;;;;5033996;28;20233;-64
2023/07/05 09:37:23;;;;;;;;;;;;;;;;;;5051060;28;19972;-64
2023/07/05 09:39:56;;;;;;;;;;;;;;;;;;5050452;28;20282;-64
2023/07/05 09:42:26;;;;;;;;;;;;;;;;;;5050802;28;20006;-64
2023/07/05 09:44:53;;;;;;;;;;;;;;;;;;5051080;28;19983;-64
2023/07/05 09:47:21;;;;;;;;;;;;;;;;;;5050784;28;19935;-64
2023/07/05 09:49:47;;;;;;;;;;;;;;;;;;5050488;28;19924;-64
2023/07/05 09:52:14;;;;;;;;;;;;;;;;;;5051943;28;19975;-64
2023/07/05 09:54:41;;;;;;;;;;;;;;;;;;5050369;28;19925;-64
2023/07/05 09:57:09;;;;;;;;;;;;;;;;;;5049103;28;19951;-64
2023/07/05 09:59:37;;;;;;;;;;;;;;;;;;5026834;28;19936;-64
2023/07/05 10:02:14;;;;;;;;;;;;;;;;;;5040374;28;19980;-64
2023/07/05 10:04:44;;;;;;;;;;;;;;;;;;5027376;28;19931;-64
2023/07/05 10:07:14;;;;;;;;;;;;;;;;;;5030809;28;20036;-64
2023/07/05 10:09:53;;;;;;;;;;;;;;;;;;5030842;28;19929;-64
2023/07/05 10:12:20;;;;;;;;;;;;;;;;;;5043216;28;20015;-64
2023/07/05 10:14:54;;;;;;;;;;;;;;;;;;5050712;28;19925;-64
2023/07/05 10:17:20;;;;;;;;;;;;;;;;;;5043834;28;20020;-64
2023/07/05 10:19:49;;;;;;;;;;;;;;;;;;5029238;28;20411;-64
2023/07/05 10:22:16;;;;;;;;;;;;;;;;;;5030585;28;19986;-64
2023/07/05 10:24:44;;;;;;;;;;;;;;;;;;5048655;28;20294;-64
2023/07/05 10:27:21;;;;;;;;;;;;;;;;;;5051962;28;19974;-64
2023/07/05 10:29:49;;;;;;;;;;;;;;;;;;5050360;28;20028;-64
2023/07/05 10:32:19;;;;;;;;;;;;;;;;;;5044442;28;20311;-64
2023/07/05 10:34:49;;;;;;;;;;;;;;;;;;5030787;28;19925;-64
2023/07/05 10:37:26;;;;;;;;;;;;;;;;;;5030789;28;20386;-64
2023/07/05 10:39:52;;;;;;;;;;;;;;;;;;5029771;28;20358;-64
2023/07/05 10:42:19;;;;;;;;;;;;;;;;;;5030726;28;19925;-64
2023/07/05 10:44:45;;;;;;;;;;;;;;;;;;5030022;28;20008;-65
2023/07/05 10:47:14;;;;;;;;;;;;;;;;;;5030847;28;19931;-65
2023/07/05 10:49:43;;;;;;;;;;;;;;;;;;5029788;28;19925;-65
2023/07/05 10:52:11;;;;;;;;;;;;;;;;;;5030760;28;20041;-64
2023/07/05 10:54:42;;;;;;;;;;;;;;;;;;5030163;28;19925;-65
2023/07/05 10:57:14;;;;;;;;;;;;;;;;;;5030763;28;20376;-65
2023/07/05 10:59:43;;;;;;;;;;;;;;;;;;5029783;28;19931;-65
2023/07/05 11:02:20;;;;;;;;;;;;;;;;;;5029641;28;20353;-64
2023/07/05 11:04:48;;;;;;;;;;;;;;;;;;5030170;28;20020;-65
2023/07/05 11:07:15;;;;;;;;;;;;;;;;;;5030295;28;19932;-64
2023/07/05 11:09:42;;;;;;;;;;;;;;;;;;5029830;28;19925;-65
2023/07/05 11:12:13;;;;;;;;;;;;;;;;;;5030046;28;20019;-65
2023/07/05 11:14:40;;;;;;;;;;;;;;;;;;5030514;28;19936;-65
2023/07/05 11:17:12;;;;;;;;;;;;;;;;;;5029898;28;20020;-65
2023/07/05 11:19:40;;;;;;;;;;;;;;;;;;5029698;28;20294;-64
2023/07/05 11:22:07;;;;;;;;;;;;;;;;;;5029906;28;19925;-65
2023/07/05 11:24:43;;;;;;;;;;;;;;;;;;5030184;28;19925;-64
2023/07/05 11:27:29;;;;;;;;;;;;;;;;;;5029623;28;19929;-64
2023/07/05 11:29:55;;;;;;;;;;;;;;;;;;5030064;28;19925;-65
2023/07/05 11:32:23;;;;;;;;;;;;;;;;;;5035776;28;19931;-64
2023/07/05 11:34:51;;;;;;;;;;;;;;;;;;5049301;28;19937;-65
2023/07/05 11:37:38;;;;;;;;;;;;;;;;;;5049974;28;20015;-65
2023/07/05 11:40:05;;;;;;;;;;;;;;;;;;5049146;28;20298;-65
2023/07/05 11:42:38;;;;;;;;;;;;;;;;;;5049991;28;19932;-65
2023/07/05 11:45:21;;;;;;;;;;;;;;;;;;5049448;28;19931;-65
2023/07/05 11:47:48;;;;;;;;;;;;;;;;;;5050026;28;19931;-65
2023/07/05 11:50:16;;;;;;;;;;;;;;;;;;5049359;28;19924;-65
2023/07/05 11:52:43;;;;;;;;;;;;;;;;;;5049756;28;19924;-64
2023/07/05 11:55:11;;;;;;;;;;;;;;;;;;5049381;28;20536;-65
2023/07/05 11:57:40;;;;;;;;;;;;;;;;;;5049539;28;19979;-64
2023/07/05 12:00:14;;;;;;;;;;;;;;;;;;5048879;28;19932;-65
2023/07/05 12:02:47;;;;;;;;;;;;;;;;;;5049904;28;19928;-65
2023/07/05 12:05:14;;;;;;;;;;;;;;;;;;5044217;28;20342;-65
2023/07/05 12:07:43;;;;;;;;;;;;;;;;;;5029039;28;20313;-65
2023/07/05 12:10:12;;;;;;;;;;;;;;;;;;5029104;28;20028;-65
2023/07/05 12:12:39;;;;;;;;;;;;;;;;;;5032284;28;19925;-65
2023/07/05 12:15:06;;;;;;;;;;;;;;;;;;5033767;28;19925;-65
2023/07/05 12:17:33;;;;;;;;;;;;;;;;;;5032880;28;19925;-65
2023/07/05 12:19:59;;;;;;;;;;;;;;;;;;5033300;28;19952;-64
2023/07/05 12:22:27;;;;;;;;;;;;;;;;;;5033006;28;19931;-65
2023/07/05 12:24:57;;;;;;;;;;;;;;;;;;5033029;28;19932;-65
2023/07/05 12:27:24;;;;;;;;;;;;;;;;;;5033121;28;19972;-65
2023/07/05 12:29:51;;;;;;;;;;;;;;;;;;5032950;28;20409;-65
2023/07/05 12:32:20;;;;;;;;;;;;;;;;;;5031020;28;20028;-64
2023/07/05 12:34:46;;;;;;;;;;;;;;;;;;5032883;28;19932;-65
2023/07/05 12:37:29;;;;;;;;;;;;;;;;;;5033210;28;19933;-64
2023/07/05 12:40:12;;;;;;;;;;;;;;;;;;5032665;28;19925;-64
2023/07/05 12:42:48;;;;;;;;;;;;;;;;;;5032817;28;20291;-64
2023/07/05 12:45:16;;;;;;;;;;;;;;;;;;5033128;28;19925;-65
2023/07/05 12:47:43;;;;;;;;;;;;;;;;;;5032711;28;19929;-65
2023/07/05 12:50:09;;;;;;;;;;;;;;;;;;5032401;28;19964;-65
2023/07/05 12:52:36;;;;;;;;;;;;;;;;;;5033232;28;19925;-65
2023/07/05 12:55:03;;;;;;;;;;;;;;;;;;5032279;28;19925;-65
2023/07/05 12:57:32;;;;;;;;;;;;;;;;;;5033123;28;19925;-65
2023/07/05 13:00:00;;;;;;;;;;;;;;;;;;5031938;28;19925;-65
2023/07/05 13:02:28;;;;;;;;;;;;;;;;;;5032667;28;20024;-65
2023/07/05 13:04:55;;;;;;;;;;;;;;;;;;5032168;28;19976;-65
2023/07/05 13:07:23;;;;;;;;;;;;;;;;;;5032631;28;19929;-65
2023/07/05 13:09:50;;;;;;;;;;;;;;;;;;5032455;28;19925;-65
2023/07/05 13:12:17;;;;;;;;;;;;;;;;;;5033342;28;20370;-65
2023/07/05 13:14:55;;;;;;;;;;;;;;;;;;5032062;28;19929;-65
2023/07/05 13:17:26;;;;;;;;;;;;;;;;;;5032650;28;19928;-65
2023/07/05 13:19:59;;;;;;;;;;;;;;;;;;5031451;28;19935;-66
2023/07/05 13:22:26;;;;;;;;;;;;;;;;;;5031057;28;19931;-66
2023/07/05 13:24:53;;;;;;;;;;;;;;;;;;5031640;28;19925;-66
2023/07/05 13:27:21;;;;;;;;;;;;;;;;;;5031904;28;20290;-66
2023/07/05 13:29:48;;;;;;;;;;;;;;;;;;5031929;28;19932;-64
2023/07/05 13:32:22;;;;;;;;;;;;;;;;;;5031788;28;19929;-64
2023/07/05 13:34:50;;;;;;;;;;;;;;;;;;5031873;28;19925;-64
2023/07/05 13:37:19;;;;;;;;;;;;;;;;;;5031836;28;19925;-64
2023/07/05 13:39:45;;;;;;;;;;;;;;;;;;5031218;28;19925;-65
2023/07/05 13:42:12;;;;;;;;;;;;;;;;;;5031856;28;20004;-64
2023/07/05 13:44:39;;;;;;;;;;;;;;;;;;5031830;28;19947;-64
2023/07/05 13:47:06;;;;;;;;;;;;;;;;;;5031282;28;19936;-64
2023/07/05 13:49:33;;;;;;;;;;;;;;;;;;5031384;28;20447;-64
2023/07/05 13:52:01;;;;;;;;;;;;;;;;;;5031404;28;19925;-64
2023/07/05 13:54:29;;;;;;;;;;;;;;;;;;5031616;28;19925;-64
2023/07/05 13:56:56;;;;;;;;;;;;;;;;;;5031137;28;19929;-64
2023/07/05 13:59:23;;;;;;;;;;;;;;;;;;5031561;28;19925;-64
2023/07/05 14:01:50;;;;;;;;;;;;;;;;;;5030274;28;20282;-64
2023/07/05 14:04:16;;;;;;;;;;;;;;;;;;5031643;28;19925;-64
2023/07/05 14:06:43;;;;;;;;;;;;;;;;;;5031100;28;19936;-64
2023/07/05 14:09:11;;;;;;;;;;;;;;;;;;5030439;28;19936;-64
2023/07/05 14:11:38;;;;;;;;;;;;;;;;;;5031172;28;19925;-64
2023/07/05 14:14:05;;;;;;;;;;;;;;;;;;5030983;28;19932;-64
2023/07/05 14:16:33;;;;;;;;;;;;;;;;;;5031432;28;19935;-64
2023/07/05 14:18:59;;;;;;;;;;;;;;;;;;5031110;28;19925;-64
2023/07/05 14:21:28;;;;;;;;;;;;;;;;;;5030496;28;20386;-64
2023/07/05 14:23:55;;;;;;;;;;;;;;;;;;5031042;28;20393;-64
2023/07/05 14:26:24;;;;;;;;;;;;;;;;;;5031161;28;19936;-64
2023/07/05 14:28:50;;;;;;;;;;;;;;;;;;5030772;28;20329;-64
2023/07/05 14:31:17;;;;;;;;;;;;;;;;;;5030610;28;20287;-64
2023/07/05 14:33:43;;;;;;;;;;;;;;;;;;5030239;28;19931;-64
2023/07/05 14:36:11;;;;;;;;;;;;;;;;;;5030538;28;19925;-64
2023/07/05 14:38:37;;;;;;;;;;;;;;;;;;5030349;28;19925;-64
2023/07/05 14:41:04;;;;;;;;;;;;;;;;;;5030499;28;19931;-64
2023/07/05 14:43:31;;;;;;;;;;;;;;;;;;5030849;28;19947;-64
2023/07/05 14:45:58;;;;;;;;;;;;;;;;;;5030578;28;19947;-64
2023/07/05 14:48:24;;;;;;;;;;;;;;;;;;5030601;28;19931;-64
2023/07/05 14:50:51;;;;;;;;;;;;;;;;;;5029125;28;19925;-64
2023/07/05 14:53:20;;;;;;;;;;;;;;;;;;5030446;28;19931;-64
2023/07/05 14:55:47;;;;;;;;;;;;;;;;;;5029792;28;20024;-64
2023/07/05 14:58:14;;;;;;;;;;;;;;;;;;5030480;28;19929;-64
2023/07/05 15:00:44;;;;;;;;;;;;;;;;;;5029526;28;20024;-64
2023/07/05 15:03:14;;;;;;;;;;;;;;;;;;5030132;28;19978;-64
2023/07/05 15:05:41;;;;;;;;;;;;;;;;;;5029835;28;19925;-64
2023/07/05 15:08:10;;;;;;;;;;;;;;;;;;5030320;28;20007;-64
2023/07/05 15:10:36;;;;;;;;;;;;;;;;;;5029726;28;19931;-64
2023/07/05 15:13:05;;;;;;;;;;;;;;;;;;5030086;28;19935;-64
2023/07/05 15:15:34;;;;;;;;;;;;;;;;;;5029976;28;20399;-64
2023/07/05 15:18:02;;;;;;;;;;;;;;;;;;5029132;28;19933;-64
2023/07/05 15:20:28;;;;;;;;;;;;;;;;;;5049558;28;20007;-64
2023/07/05 15:22:55;;;;;;;;;;;;;;;;;;5049925;28;19931;-64
2023/07/05 15:25:21;;;;;;;;;;;;;;;;;;5050421;28;19924;-63
2023/07/05 15:27:48;;;;;;;;;;;;;;;;;;5049668;28;19947;-64
2023/07/05 15:30:16;;;;;;;;;;;;;;;;;;5049258;28;19925;-64
2023/07/05 15:32:43;;;;;;;;;;;;;;;;;;5049594;28;20541;-64
2023/07/05 15:35:11;;;;;;;;;;;;;;;;;;5050243;28;19947;-64
2023/07/05 15:37:38;;;;;;;;;;;;;;;;;;5049288;28;19924;-64
2023/07/05 15:40:05;;;;;;;;;;;;;;;;;;5029423;28;19995;-64
2023/07/05 15:42:32;;;;;;;;;;;;;;;;;;5029627;28;19925;-64
2023/07/05 15:44:58;;;;;;;;;;;;;;;;;;5031115;28;20515;-63
2023/07/05 15:47:24;;;;;;;;;;;;;;;;;;5034921;28;19961;-63
2023/07/05 15:49:51;;;;;;;;;;;;;;;;;;5031003;28;19931;-63
2023/07/05 15:52:18;;;;;;;;;;;;;;;;;;5033798;28;19931;-64
2023/07/05 15:54:45;;;;;;;;;;;;;;;;;;5033264;28;20383;-64
2023/07/05 15:57:11;;;;;;;;;;;;;;;;;;5033487;28;20302;-63
2023/07/05 15:59:46;;;;;;;;;;;;;;;;;;5032479;28;19932;-64
2023/07/05 16:02:14;;;;;;;;;;;;;;;;;;5033701;28;19925;-63
2023/07/05 16:04:41;;;;;;;;;;;;;;;;;;5033198;28;19932;-63
2023/07/05 16:07:08;;;;;;;;;;;;;;;;;;5033242;28;19925;-63
2023/07/05 16:09:36;;;;;;;;;;;;;;;;;;5032689;28;19925;-64
2023/07/05 16:12:03;;;;;;;;;;;;;;;;;;5032833;28;19925;-64
2023/07/05 16:14:30;;;;;;;;;;;;;;;;;;5033327;28;19925;-63
2023/07/05 16:16:57;;;;;;;;;;;;;;;;;;5032549;28;20371;-63
2023/07/05 16:19:23;;;;;;;;;;;;;;;;;;5033617;28;19925;-63
2023/07/05 16:21:49;;;;;;;;;;;;;;;;;;5032580;28;20019;-63
2023/07/05 16:24:16;;;;;;;;;;;;;;;;;;5034000;28;19925;-64
2023/07/05 16:26:43;;;;;;;;;;;;;;;;;;5032472;28;19936;-63
2023/07/05 16:29:10;;;;;;;;;;;;;;;;;;5033710;28;19925;-63
2023/07/05 16:31:37;;;;;;;;;;;;;;;;;;5032676;28;20367;-64
2023/07/05 16:34:04;;;;;;;;;;;;;;;;;;5033373;28;19925;-63
2023/07/05 16:36:31;;;;;;;;;;;;;;;;;;5033032;28;19925;-63
2023/07/05 16:38:57;;;;;;;;;;;;;;;;;;5032503;28;20260;-63
2023/07/05 16:41:24;;;;;;;;;;;;;;;;;;5032443;28;19932;-63
2023/07/05 16:43:51;;;;;;;;;;;;;;;;;;5032535;28;19925;-63
2023/07/05 16:46:18;;;;;;;;;;;;;;;;;;5033240;28;19925;-63
2023/07/05 16:48:45;;;;;;;;;;;;;;;;;;5032602;28;20298;-63
2023/07/05 16:51:12;;;;;;;;;;;;;;;;;;5032356;28;20031;-63